^^
Saratoga-Weather Station Historical Data
Daily Summary for March 21, 2020 Units:  Metric    English   Both
Daily Weekly Monthly Yearly Custom
  High: Low: Average:
Temperature: 9.1 °C 2.8 °C 5.9 °C
Dew Point: 6.9 °C 0.4 °C 3.4 °C
Humidity: 94% 77% 85%
Wind Speed: 25.9km/h 0km/h 6.6km/h
Wind Gust: 29km/h - -
Wind- - ESE
Pressure: 1022.4 hPa 1019.6 hPa -
Precipitation: 4.6 mm    
Historical Graphs
 
 
Tabular Data for March 21, 2020
Time Temperature Dew Point Pressure Wind Wind Speed Wind Gust Humidity Rainfall Rate (Hourly) solar
00:04 9 °C 6.8 °C 1020.3 hPa WNW 1.4 km/h 3.2 km/h 86% 0.0 mm 0 W/m2
00:09 9.1 °C 6.7 °C 1020.7 hPa NW 1.4 km/h 4.8 km/h 85% 0.0 mm 0 W/m2
00:14 9.1 °C 6.9 °C 1020.3 hPa ENE 3.2 km/h 6.4 km/h 86% 0.0 mm 0 W/m2
00:19 9.1 °C 6.7 °C 1020.3 hPa NNE 1.4 km/h 3.2 km/h 85% 0.0 mm 0 W/m2
00:24 9.1 °C 6.9 °C 1020.3 hPa ENE 7.9 km/h 8 km/h 86% 0.0 mm 0 W/m2
00:29 9.1 °C 6.9 °C 1020.3 hPa East 9.7 km/h 9.7 km/h 86% 0.0 mm 0 W/m2
00:34 9.1 °C 6.9 °C 1020.3 hPa NNE 1.4 km/h 6.4 km/h 86% 0.0 mm 0 W/m2
00:39 9.1 °C 6.9 °C 1020.3 hPa NE 1.4 km/h 8 km/h 86% 0.0 mm 0 W/m2
00:44 9.1 °C 6.9 °C 1020.3 hPa North 6.4 km/h 6.4 km/h 86% 0.0 mm 0 W/m2
00:49 9.1 °C 6.9 °C 1020.0 hPa SW 3.2 km/h 8 km/h 86% 0.0 mm 0 W/m2
00:54 9.1 °C 6.9 °C 1020.0 hPa NW 3.2 km/h 4.8 km/h 86% 0.0 mm 0 W/m2
00:59 9.1 °C 6.9 °C 1020.0 hPa South 1.4 km/h 4.8 km/h 86% 0.0 mm 0 W/m2
01:04 9.1 °C 6.9 °C 1020.3 hPa Calm   3.2 km/h 86% 0.0 mm 0 W/m2
01:09 9.1 °C 6.9 °C 1020.0 hPa East 6.4 km/h 8 km/h 86% 0.0 mm 0 W/m2
01:14 9.1 °C 6.9 °C 1020.0 hPa NNE 1.4 km/h 4.8 km/h 86% 0.0 mm 0 W/m2
01:19 9.1 °C 6.9 °C 1020.0 hPa SSW 1.4 km/h 6.4 km/h 86% 0.0 mm 0 W/m2
01:24 9.1 °C 6.9 °C 1020.0 hPa ENE 4.7 km/h 6.4 km/h 86% 0.0 mm 0 W/m2
01:29 9.1 °C 6.7 °C 1020.0 hPa Calm   14.5 km/h 85% 0.0 mm 0 W/m2
01:34 9.1 °C 6.7 °C 1020.0 hPa SSE 4.7 km/h 12.9 km/h 85% 0.0 mm 0 W/m2
01:39 9.1 °C 6.7 °C 1020.0 hPa NNW 6.4 km/h 8 km/h 85% 0.0 mm 0 W/m2
01:44 9.1 °C 6.7 °C 1020.0 hPa NE 1.4 km/h 12.9 km/h 85% 0.0 mm 0 W/m2
01:50 9.1 °C 6.7 °C 1020.0 hPa NNW 4.7 km/h 14.5 km/h 85% 0.0 mm 0 W/m2
01:55 9.1 °C 6.7 °C 1020.0 hPa North 4.7 km/h 6.4 km/h 85% 0.0 mm 0 W/m2
02:00 9.1 °C 6.7 °C 1020.0 hPa South 3.2 km/h 3.2 km/h 85% 0.0 mm 0 W/m2
02:05 9.1 °C 6.7 °C 1020.0 hPa NNE 4.7 km/h 6.4 km/h 85% 0.0 mm 0 W/m2
02:10 9.1 °C 6.7 °C 1020.0 hPa NW 4.7 km/h 12.9 km/h 85% 0.0 mm 0 W/m2
02:15 9 °C 6.6 °C 1020.0 hPa South 3.2 km/h 4.8 km/h 85% 0.0 mm 0 W/m2
02:20 9 °C 6.6 °C 1020.0 hPa WNW 4.7 km/h 9.7 km/h 85% 0.0 mm 0 W/m2
02:25 8.9 °C 6.3 °C 1020.0 hPa SW 1.4 km/h 6.4 km/h 84% 0.0 mm 0 W/m2
02:30 8.9 °C 6.5 °C 1019.6 hPa ENE 4.7 km/h 9.7 km/h 85% 0.0 mm 0 W/m2
02:35 9 °C 6.6 °C 1019.6 hPa East 6.4 km/h 12.9 km/h 85% 0.0 mm 0 W/m2
02:40 8.9 °C 6.5 °C 1019.6 hPa NNW 3.2 km/h 6.4 km/h 85% 0.0 mm 0 W/m2
02:45 8.9 °C 6.5 °C 1020.0 hPa NE 7.9 km/h 14.5 km/h 85% 0.0 mm 0 W/m2
02:50 8.8 °C 6.4 °C 1020.0 hPa NE 9.7 km/h 22.5 km/h 85% 0.0 mm 0 W/m2
02:55 8.8 °C 6.4 °C 1020.0 hPa ENE 1.4 km/h 4.8 km/h 85% 0.0 mm 0 W/m2
03:00 8.7 °C 6.3 °C 1020.0 hPa East 11.1 km/h 14.5 km/h 85% 0.0 mm 0 W/m2
03:05 8.4 °C 6 °C 1020.0 hPa NW 3.2 km/h 11.3 km/h 85% 0.0 mm 0 W/m2
03:10 8.3 °C 6.1 °C 1020.0 hPa WNW 4.7 km/h 12.9 km/h 86% 0.0 mm 0 W/m2
03:15 8.2 °C 6 °C 1020.0 hPa ESE 3.2 km/h 6.4 km/h 86% 0.0 mm 0 W/m2
03:20 8.1 °C 5.9 °C 1020.3 hPa South 3.2 km/h 9.7 km/h 86% 0.0 mm 0 W/m2
03:25 7.9 °C 5.7 °C 1020.3 hPa East 1.4 km/h 11.3 km/h 86% 0.0 mm 0 W/m2
03:30 7.9 °C 5.7 °C 1020.0 hPa ESE 6.4 km/h 6.4 km/h 86% 0.0 mm 0 W/m2
03:35 7.8 °C 5.6 °C 1020.0 hPa NE 3.2 km/h 12.9 km/h 86% 0.0 mm 0 W/m2
03:40 7.7 °C 5.7 °C 1020.3 hPa ESE 7.9 km/h 12.9 km/h 87% 0.0 mm 0 W/m2
03:45 7.6 °C 5.6 °C 1020.3 hPa East 3.2 km/h 20.9 km/h 87% 0.0 mm 0 W/m2
03:50 7.4 °C 5.4 °C 1020.3 hPa NW 4.7 km/h 11.3 km/h 87% 0.0 mm 0 W/m2
03:55 7.3 °C 5.3 °C 1020.3 hPa North 6.4 km/h 8 km/h 87% 0.0 mm 0 W/m2
04:01 7.3 °C 5.3 °C 1020.0 hPa ESE 3.2 km/h 9.7 km/h 87% 0.0 mm 0 W/m2
04:06 7.2 °C 5.2 °C 1020.0 hPa ENE 9.7 km/h 14.5 km/h 87% 0.0 mm 0 W/m2
04:11 7.1 °C 5.2 °C 1020.3 hPa SE 16.3 km/h 22.5 km/h 88% 0.0 mm 0 W/m2
04:16 6.9 °C 5.1 °C 1020.3 hPa North 4.7 km/h 6.4 km/h 88% 0.0 mm 0 W/m2
04:21 6.8 °C 4.8 °C 1020.0 hPa SW 1.4 km/h 4.8 km/h 87% 0.0 mm 0 W/m2
04:26 6.7 °C 4.9 °C 1020.0 hPa WNW 3.2 km/h 8 km/h 88% 0.0 mm 0 W/m2
04:31 6.5 °C 4.7 °C 1020.0 hPa Calm   17.7 km/h 88% 0.0 mm 0 W/m2
04:36 6.3 °C 4.5 °C 1020.0 hPa East 1.4 km/h 9.7 km/h 88% 0.0 mm 0 W/m2
04:41 6.1 °C 4.3 °C 1020.0 hPa ENE 13 km/h 29 km/h 88% 0.0 mm 0 W/m2
04:46 6.1 °C 4.4 °C 1020.0 hPa East 9.7 km/h 12.9 km/h 89% 0.0 mm 0 W/m2
04:51 5.8 °C 4 °C 1020.0 hPa NNE 9.7 km/h 29 km/h 88% 0.0 mm 0 W/m2
04:56 5.6 °C 3.8 °C 1020.3 hPa SE 11.1 km/h 19.3 km/h 88% 0.0 mm 0 W/m2
05:01 5.4 °C 3.7 °C 1020.0 hPa ESE 13 km/h 20.9 km/h 89% 0.0 mm 0 W/m2
05:06 5.3 °C 3.6 °C 1020.0 hPa ENE 6.4 km/h 16.1 km/h 89% 0.0 mm 0 W/m2
05:12 5.1 °C 3.4 °C 1020.0 hPa East 4.7 km/h 19.3 km/h 89% 0.0 mm 0 W/m2
05:17 5 °C 3.3 °C 1020.3 hPa ENE 1.4 km/h 8 km/h 89% 0.0 mm 0 W/m2
05:22 4.9 °C 3.4 °C 1020.3 hPa SSE 1.4 km/h 6.4 km/h 90% 0.0 mm 0 W/m2
05:27 4.8 °C 3.3 °C 1020.3 hPa NNW 13 km/h 12.9 km/h 90% 0.0 mm 0 W/m2
05:32 4.8 °C 3.3 °C 1020.7 hPa NW 3.2 km/h 8 km/h 90% 0.2 mm 0 W/m2
05:37 4.7 °C 3.2 °C 1020.7 hPa NNW 1.4 km/h 17.7 km/h 90% 0.2 mm 0 W/m2
05:43 4.6 °C 3.1 °C 1020.7 hPa NNW 3.2 km/h 8 km/h 90% 0.2 mm 0 W/m2
05:48 4.5 °C 3.2 °C 1020.7 hPa North 3.2 km/h 17.7 km/h 91% 0.5 mm 0 W/m2
05:53 4.5 °C 3.2 °C 1021.0 hPa NW 7.9 km/h 8 km/h 91% 0.5 mm 0 W/m2
05:58 4.4 °C 3.1 °C 1021.0 hPa West 4.7 km/h 12.9 km/h 91% 0.5 mm 0 W/m2
06:03 4.4 °C 3.1 °C 1021.0 hPa Calm   9.7 km/h 91% 0.5 mm 0 W/m2
06:08 4.3 °C 3 °C 1021.0 hPa NNW 13 km/h 12.9 km/h 91% 0.8 mm 0 W/m2
06:13 4.3 °C 3 °C 1021.0 hPa NW 1.4 km/h 4.8 km/h 91% 0.8 mm 0 W/m2
06:18 4.2 °C 3 °C 1021.0 hPa NE 4.7 km/h 16.1 km/h 92% 1.0 mm 0 W/m2
06:23 4.2 °C 3 °C 1021.0 hPa NE 1.4 km/h 8 km/h 92% 1.3 mm 0 W/m2
06:28 4.2 °C 3 °C 1021.0 hPa East 9.7 km/h 16.1 km/h 92% 1.5 mm 0 W/m2
06:33 4.2 °C 3 °C 1021.0 hPa NE 4.7 km/h 4.8 km/h 92% 1.5 mm 0 W/m2
06:38 4.1 °C 2.9 °C 1021.0 hPa NNW 1.4 km/h 4.8 km/h 92% 1.5 mm 0 W/m2
06:43 4.1 °C 2.9 °C 1021.0 hPa ENE 3.2 km/h 6.4 km/h 92% 1.8 mm 0 W/m2
06:48 4.1 °C 3.1 °C 1021.0 hPa West 4.7 km/h 4.8 km/h 93% 1.8 mm 0 W/m2
06:53 3.9 °C 2.9 °C 1021.0 hPa NNW 3.2 km/h 6.4 km/h 93% 1.8 mm 0 W/m2
06:58 3.8 °C 2.8 °C 1021.0 hPa NNW 1.4 km/h 9.7 km/h 93% 2.0 mm 0 W/m2
07:03 3.7 °C 2.7 °C 1021.0 hPa East 4.7 km/h 11.3 km/h 93% 2.0 mm 0 W/m2
07:08 3.6 °C 2.4 °C 1021.0 hPa NNE 3.2 km/h 14.5 km/h 92% 1.8 mm 0 W/m2
07:13 3.4 °C 2.4 °C 1021.0 hPa SW 3.2 km/h 4.8 km/h 93% 1.8 mm 0 W/m2
07:18 3.3 °C 2.3 °C 1021.0 hPa SE 1.4 km/h 14.5 km/h 93% 1.8 mm 0 W/m2
07:23 3.3 °C 2.3 °C 1021.3 hPa NW 3.2 km/h 8 km/h 93% 1.8 mm 0 W/m2
07:28 3.2 °C 2.2 °C 1021.3 hPa West 3.2 km/h 6.4 km/h 93% 1.8 mm 5 W/m2
07:33 3.1 °C 2.1 °C 1021.3 hPa North 4.7 km/h 6.4 km/h 93% 1.5 mm 9 W/m2
07:38 3.1 °C 2.1 °C 1021.3 hPa NW 6.4 km/h 14.5 km/h 93% 1.5 mm 12 W/m2
07:43 2.9 °C 1.9 °C 1021.3 hPa NE 4.7 km/h 14.5 km/h 93% 1.8 mm 18 W/m2
07:48 2.8 °C 1.8 °C 1021.3 hPa Calm   11.3 km/h 93% 1.8 mm 16 W/m2
07:54 2.8 °C 1.8 °C 1021.3 hPa SW 3.2 km/h 9.7 km/h 93% 1.8 mm 18 W/m2
07:59 2.8 °C 1.8 °C 1021.3 hPa Calm   9.7 km/h 93% 1.8 mm 18 W/m2
08:04 2.8 °C 1.9 °C 1021.3 hPa NNE 4.7 km/h 4.8 km/h 94% 1.5 mm 18 W/m2
08:09 2.8 °C 1.9 °C 1021.3 hPa SE 1.4 km/h 4.8 km/h 94% 1.5 mm 21 W/m2
08:14 2.9 °C 2 °C 1021.3 hPa ENE 3.2 km/h 6.4 km/h 94% 1.8 mm 21 W/m2
08:19 2.9 °C 2 °C 1021.3 hPa ENE 6.4 km/h 6.4 km/h 94% 1.5 mm 23 W/m2
08:24 2.9 °C 2 °C 1021.3 hPa NE 7.9 km/h 12.9 km/h 94% 1.5 mm 28 W/m2
08:29 2.9 °C 2 °C 1021.3 hPa ESE 3.2 km/h 12.9 km/h 94% 1.3 mm 35 W/m2
08:34 2.9 °C 2 °C 1021.3 hPa NE 3.2 km/h 9.7 km/h 94% 1.0 mm 30 W/m2
08:39 3 °C 2.1 °C 1021.3 hPa East 3.2 km/h 9.7 km/h 94% 0.8 mm 18 W/m2
08:44 2.9 °C 2 °C 1021.3 hPa North 1.4 km/h 6.4 km/h 94% 0.5 mm 21 W/m2
08:49 2.9 °C 2 °C 1021.3 hPa Calm   8 km/h 94% 0.5 mm 37 W/m2
08:54 2.9 °C 2 °C 1021.3 hPa WNW 3.2 km/h 4.8 km/h 94% 0.5 mm 39 W/m2
08:59 2.9 °C 2 °C 1021.3 hPa SSW 1.4 km/h 8 km/h 94% 0.5 mm 40 W/m2
09:04 3 °C 2.1 °C 1021.3 hPa Calm   3.2 km/h 94% 0.5 mm 46 W/m2
09:09 3 °C 2.1 °C 1021.3 hPa North 3.2 km/h 8 km/h 94% 0.5 mm 56 W/m2
09:14 3.1 °C 2.2 °C 1021.3 hPa ENE 3.2 km/h 6.4 km/h 94% 0.2 mm 37 W/m2
09:19 3.2 °C 2.3 °C 1021.3 hPa ENE 3.2 km/h 4.8 km/h 94% 0.2 mm 53 W/m2
09:25 3.2 °C 2.3 °C 1021.3 hPa ENE 3.2 km/h 6.4 km/h 94% 0.2 mm 54 W/m2
09:30 3.3 °C 2.4 °C 1021.3 hPa NE 7.9 km/h 8 km/h 94% 0.2 mm 47 W/m2
09:35 3.3 °C 2.4 °C 1021.3 hPa ENE 1.4 km/h 1.6 km/h 94% 0.2 mm 39 W/m2
09:40 3.4 °C 2.5 °C 1021.3 hPa ESE 1.4 km/h 4.8 km/h 94% 0.2 mm 40 W/m2
09:45 3.4 °C 2.5 °C 1021.3 hPa ENE 3.2 km/h 8 km/h 94% 0.2 mm 44 W/m2
09:50 3.6 °C 2.7 °C 1021.3 hPa NE 1.4 km/h 8 km/h 94% 0.2 mm 39 W/m2
09:55 3.6 °C 2.7 °C 1021.3 hPa South 3.2 km/h 8 km/h 94% 0.0 mm 44 W/m2
10:00 3.7 °C 2.8 °C 1021.3 hPa ENE 3.2 km/h 6.4 km/h 94% 0.0 mm 40 W/m2
10:05 3.7 °C 2.8 °C 1021.3 hPa ENE 6.4 km/h 9.7 km/h 94% 0.0 mm 51 W/m2
10:10 3.8 °C 2.9 °C 1021.3 hPa SE 3.2 km/h 8 km/h 94% 0.0 mm 62 W/m2
10:16 3.9 °C 3 °C 1021.3 hPa Calm   6.4 km/h 94% 0.0 mm 70 W/m2
10:21 4 °C 3.1 °C 1021.3 hPa ESE 6.4 km/h 9.7 km/h 94% 0.0 mm 77 W/m2
10:26 4.1 °C 3.1 °C 1021.3 hPa ENE 6.4 km/h 9.7 km/h 93% 0.0 mm 58 W/m2
10:31 4.2 °C 3.2 °C 1021.3 hPa East 6.4 km/h 16.1 km/h 93% 0.0 mm 58 W/m2
10:36 4.2 °C 3.2 °C 1021.3 hPa East 7.9 km/h 9.7 km/h 93% 0.0 mm 81 W/m2
10:41 4.3 °C 3.3 °C 1021.3 hPa NNE 6.4 km/h 16.1 km/h 93% 0.0 mm 93 W/m2
10:46 4.4 °C 3.4 °C 1021.3 hPa East 9.7 km/h 9.7 km/h 93% 0.0 mm 90 W/m2
10:51 4.6 °C 3.6 °C 1021.0 hPa ENE 7.9 km/h 16.1 km/h 93% 0.0 mm 105 W/m2
10:56 4.7 °C 3.7 °C 1021.0 hPa ESE 4.7 km/h 6.4 km/h 93% 0.0 mm 118 W/m2
11:01 4.8 °C 3.6 °C 1021.0 hPa ESE 4.7 km/h 12.9 km/h 92% 0.0 mm 116 W/m2
11:06 4.9 °C 3.6 °C 1021.0 hPa East 4.7 km/h 19.3 km/h 91% 0.0 mm 107 W/m2
11:11 5 °C 3.7 °C 1021.0 hPa NE 3.2 km/h 14.5 km/h 91% 0.0 mm 91 W/m2
11:16 5.2 °C 3.9 °C 1021.0 hPa NE 14.3 km/h 20.9 km/h 91% 0.0 mm 114 W/m2
11:21 5.3 °C 3.8 °C 1021.0 hPa East 4.7 km/h 11.3 km/h 90% 0.0 mm 162 W/m2
11:26 5.4 °C 3.9 °C 1021.0 hPa SE 6.4 km/h 19.3 km/h 90% 0.0 mm 162 W/m2
11:31 5.6 °C 3.9 °C 1021.0 hPa ESE 4.7 km/h 11.3 km/h 89% 0.0 mm 139 W/m2
11:36 5.7 °C 3.9 °C 1021.0 hPa NE 6.4 km/h 14.5 km/h 88% 0.0 mm 114 W/m2
11:41 5.7 °C 3.9 °C 1021.0 hPa East 6.4 km/h 16.1 km/h 88% 0.0 mm 84 W/m2
11:46 5.7 °C 3.7 °C 1021.0 hPa ENE 6.4 km/h 16.1 km/h 87% 0.0 mm 76 W/m2
11:51 5.8 °C 3.6 °C 1021.0 hPa ENE 4.7 km/h 11.3 km/h 86% 0.0 mm 97 W/m2
11:56 5.8 °C 3.6 °C 1021.0 hPa ENE 7.9 km/h 14.5 km/h 86% 0.0 mm 111 W/m2
12:01 5.9 °C 3.7 °C 1021.0 hPa ESE 9.7 km/h 12.9 km/h 86% 0.0 mm 104 W/m2
12:06 6 °C 3.8 °C 1021.0 hPa SE 6.4 km/h 14.5 km/h 86% 0.0 mm 84 W/m2
12:11 6.1 °C 3.8 °C 1021.0 hPa East 6.4 km/h 9.7 km/h 85% 0.0 mm 74 W/m2
12:16 6.1 °C 3.8 °C 1020.7 hPa ENE 4.7 km/h 12.9 km/h 85% 0.0 mm 90 W/m2
12:21 6.2 °C 3.9 °C 1020.7 hPa East 3.2 km/h 11.3 km/h 85% 0.0 mm 84 W/m2
12:27 6.2 °C 3.7 °C 1020.7 hPa SE 6.4 km/h 20.9 km/h 84% 0.0 mm 81 W/m2
12:32 6.3 °C 3.8 °C 1020.7 hPa East 6.4 km/h 12.9 km/h 84% 0.0 mm 88 W/m2
12:37 6.3 °C 3.8 °C 1020.7 hPa NE 6.4 km/h 20.9 km/h 84% 0.0 mm 83 W/m2
12:42 6.4 °C 3.7 °C 1020.7 hPa ENE 4.7 km/h 6.4 km/h 83% 0.0 mm 116 W/m2
12:47 6.5 °C 3.8 °C 1020.7 hPa SE 4.7 km/h 19.3 km/h 83% 0.0 mm 121 W/m2
12:52 6.6 °C 3.9 °C 1020.7 hPa ESE 6.4 km/h 14.5 km/h 83% 0.0 mm 97 W/m2
12:57 6.6 °C 3.9 °C 1020.7 hPa East 9.7 km/h 20.9 km/h 83% 0.0 mm 102 W/m2
13:02 6.6 °C 3.9 °C 1020.7 hPa East 11.1 km/h 19.3 km/h 83% 0.0 mm 100 W/m2
13:07 6.6 °C 3.9 °C 1020.7 hPa ESE 11.1 km/h 16.1 km/h 83% 0.0 mm 120 W/m2
13:12 6.7 °C 3.8 °C 1020.7 hPa ESE 6.4 km/h 12.9 km/h 82% 0.0 mm 120 W/m2
13:17 6.7 °C 3.7 °C 1020.7 hPa ENE 14.3 km/h 24.1 km/h 81% 0.0 mm 120 W/m2
13:23 6.8 °C 3.6 °C 1020.7 hPa ESE 6.4 km/h 22.5 km/h 80% 0.0 mm 125 W/m2
13:28 6.8 °C 3.6 °C 1020.7 hPa ENE 13 km/h 20.9 km/h 80% 0.0 mm 139 W/m2
13:33 6.8 °C 3.6 °C 1020.7 hPa East 11.1 km/h 14.5 km/h 80% 0.0 mm 107 W/m2
13:38 6.9 °C 3.9 °C 1020.7 hPa ESE 4.7 km/h 6.4 km/h 81% 0.0 mm 98 W/m2
13:43 7 °C 3.8 °C 1020.7 hPa NNE 9.7 km/h 12.9 km/h 80% 0.0 mm 107 W/m2
13:48 7 °C 3.8 °C 1020.7 hPa East 3.2 km/h 17.7 km/h 80% 0.0 mm 102 W/m2
13:53 6.9 °C 3.7 °C 1020.7 hPa ENE 3.2 km/h 20.9 km/h 80% 0.0 mm 104 W/m2
13:59 6.9 °C 3.5 °C 1020.3 hPa ESE 9.7 km/h 11.3 km/h 79% 0.0 mm 105 W/m2
14:04 6.9 °C 3.7 °C 1020.7 hPa ENE 4.7 km/h 20.9 km/h 80% 0.0 mm 84 W/m2
14:09 6.9 °C 3.7 °C 1020.3 hPa NE 25.9 km/h 25.7 km/h 80% 0.0 mm 81 W/m2
14:14 6.8 °C 3.4 °C 1020.7 hPa NE 14.3 km/h 17.7 km/h 79% 0.0 mm 83 W/m2
14:19 6.8 °C 3.4 °C 1020.7 hPa East 3.2 km/h 12.9 km/h 79% 0.0 mm 93 W/m2
14:24 6.9 °C 3.5 °C 1020.7 hPa East 4.7 km/h 9.7 km/h 79% 0.0 mm 91 W/m2
14:29 6.9 °C 3.5 °C 1020.7 hPa NE 11.1 km/h 17.7 km/h 79% 0.0 mm 111 W/m2
14:34 6.9 °C 3.5 °C 1020.7 hPa East 4.7 km/h 14.5 km/h 79% 0.0 mm 83 W/m2
14:39 6.9 °C 3.5 °C 1020.7 hPa ESE 11.1 km/h 16.1 km/h 79% 0.0 mm 98 W/m2
14:44 6.9 °C 3.5 °C 1020.7 hPa NNE 7.9 km/h 9.7 km/h 79% 0.0 mm 141 W/m2
14:49 6.9 °C 3.5 °C 1020.7 hPa East 4.7 km/h 16.1 km/h 79% 0.0 mm 155 W/m2
14:54 7 °C 3.6 °C 1020.7 hPa ESE 3.2 km/h 11.3 km/h 79% 0.0 mm 88 W/m2
14:59 7.1 °C 3.7 °C 1020.7 hPa NE 7.9 km/h 14.5 km/h 79% 0.0 mm 104 W/m2
15:04 7.1 °C 3.7 °C 1020.7 hPa SE 6.4 km/h 17.7 km/h 79% 0.0 mm 123 W/m2
15:09 7.1 °C 3.5 °C 1020.3 hPa ENE 14.3 km/h 17.7 km/h 78% 0.0 mm 148 W/m2
15:14 7.2 °C 3.6 °C 1020.3 hPa ESE 6.4 km/h 12.9 km/h 78% 0.0 mm 120 W/m2
15:19 7.2 °C 3.6 °C 1020.3 hPa NE 7.9 km/h 16.1 km/h 78% 0.0 mm 113 W/m2
15:24 7.2 °C 3.6 °C 1020.3 hPa ENE 6.4 km/h 14.5 km/h 78% 0.0 mm 79 W/m2
15:29 7.1 °C 3.7 °C 1020.3 hPa ENE 7.9 km/h 14.5 km/h 79% 0.0 mm 63 W/m2
15:34 6.9 °C 3.3 °C 1020.3 hPa ENE 7.9 km/h 22.5 km/h 78% 0.0 mm 70 W/m2
15:39 6.9 °C 3.5 °C 1020.3 hPa East 16.3 km/h 16.1 km/h 79% 0.0 mm 97 W/m2
15:44 6.9 °C 3.5 °C 1020.7 hPa NNE 7.9 km/h 22.5 km/h 79% 0.0 mm 91 W/m2
15:49 6.9 °C 3.5 °C 1020.3 hPa SE 7.9 km/h 12.9 km/h 79% 0.0 mm 105 W/m2
15:54 7.1 °C 3.7 °C 1020.3 hPa ESE 6.4 km/h 12.9 km/h 79% 0.0 mm 120 W/m2
15:59 7.2 °C 3.8 °C 1020.7 hPa ENE 7.9 km/h 11.3 km/h 79% 0.0 mm 93 W/m2
16:04 7.2 °C 3.6 °C 1020.7 hPa SSW 6.4 km/h 11.3 km/h 78% 0.0 mm 118 W/m2
16:10 7.2 °C 3.6 °C 1020.3 hPa ESE 11.1 km/h 14.5 km/h 78% 0.0 mm 155 W/m2
16:15 7.3 °C 3.7 °C 1020.3 hPa ENE 4.7 km/h 8 km/h 78% 0.0 mm 60 W/m2
16:20 7.3 °C 3.7 °C 1020.7 hPa ENE 4.7 km/h 14.5 km/h 78% 0.0 mm 40 W/m2
16:25 7.1 °C 3.5 °C 1020.7 hPa SE 7.9 km/h 22.5 km/h 78% 0.0 mm 95 W/m2
16:30 7.1 °C 3.5 °C 1020.7 hPa ESE 11.1 km/h 16.1 km/h 78% 0.0 mm 53 W/m2
16:35 7.1 °C 3.5 °C 1020.3 hPa East 17.7 km/h 17.7 km/h 78% 0.0 mm 83 W/m2
16:40 7.1 °C 3.5 °C 1020.3 hPa SE 7.9 km/h 12.9 km/h 78% 0.0 mm 58 W/m2
16:45 7.1 °C 3.5 °C 1020.7 hPa East 7.9 km/h 12.9 km/h 78% 0.0 mm 67 W/m2
16:50 7.2 °C 3.6 °C 1020.7 hPa East 9.7 km/h 17.7 km/h 78% 0.0 mm 44 W/m2
16:55 7.2 °C 3.6 °C 1020.7 hPa East 14.3 km/h 22.5 km/h 78% 0.0 mm 47 W/m2
17:00 7.1 °C 3.5 °C 1020.7 hPa ESE 4.7 km/h 20.9 km/h 78% 0.0 mm 42 W/m2
17:05 6.9 °C 3.3 °C 1020.7 hPa ENE 16.3 km/h 16.1 km/h 78% 0.0 mm 44 W/m2
17:10 6.8 °C 3.2 °C 1020.7 hPa ENE 16.3 km/h 16.1 km/h 78% 0.0 mm 37 W/m2
17:15 6.8 °C 3.2 °C 1020.7 hPa NE 16.3 km/h 22.5 km/h 78% 0.0 mm 32 W/m2
17:20 6.7 °C 3.1 °C 1020.7 hPa NE 11.1 km/h 19.3 km/h 78% 0.0 mm 26 W/m2
17:25 6.7 °C 3.1 °C 1020.7 hPa ENE 19.5 km/h 22.5 km/h 78% 0.0 mm 33 W/m2
17:30 6.7 °C 3.1 °C 1020.7 hPa East 17.7 km/h 19.3 km/h 78% 0.0 mm 18 W/m2
17:35 6.6 °C 3 °C 1020.7 hPa ENE 7.9 km/h 19.3 km/h 78% 0.0 mm 26 W/m2
17:40 6.6 °C 3.2 °C 1020.7 hPa East 13 km/h 12.9 km/h 79% 0.0 mm 39 W/m2
17:45 6.5 °C 2.9 °C 1020.7 hPa SE 7.9 km/h 24.1 km/h 78% 0.0 mm 33 W/m2
17:50 6.5 °C 2.9 °C 1020.7 hPa East 14.3 km/h 17.7 km/h 78% 0.0 mm 16 W/m2
17:55 6.4 °C 2.8 °C 1020.7 hPa SE 16.3 km/h 24.1 km/h 78% 0.0 mm 18 W/m2
18:00 6.4 °C 2.8 °C 1021.0 hPa NE 11.1 km/h 16.1 km/h 78% 0.0 mm 18 W/m2
18:05 6.3 °C 2.7 °C 1021.0 hPa East 6.4 km/h 14.5 km/h 78% 0.0 mm 16 W/m2
18:10 6.3 °C 2.7 °C 1021.0 hPa ESE 4.7 km/h 19.3 km/h 78% 0.0 mm 18 W/m2
18:15 6.3 °C 2.9 °C 1021.0 hPa NE 24.1 km/h 24.1 km/h 79% 0.0 mm 14 W/m2
18:20 6.3 °C 2.9 °C 1021.0 hPa ESE 6.4 km/h 12.9 km/h 79% 0.0 mm 12 W/m2
18:25 6.3 °C 2.9 °C 1021.0 hPa ESE 11.1 km/h 19.3 km/h 79% 0.0 mm 7 W/m2
18:30 6.2 °C 2.6 °C 1021.0 hPa NNE 6.4 km/h 11.3 km/h 78% 0.0 mm 5 W/m2
18:36 6.2 °C 2.8 °C 1021.0 hPa ENE 7.9 km/h 14.5 km/h 79% 0.0 mm 5 W/m2
18:41 6.1 °C 2.7 °C 1021.0 hPa SE 6.4 km/h 12.9 km/h 79% 0.0 mm 5 W/m2
18:46 5.9 °C 2.7 °C 1021.3 hPa ESE 3.2 km/h 16.1 km/h 80% 0.0 mm 0 W/m2
18:51 5.8 °C 2.6 °C 1021.3 hPa NE 6.4 km/h 12.9 km/h 80% 0.0 mm 0 W/m2
18:56 5.8 °C 2.8 °C 1021.3 hPa SSE 6.4 km/h 20.9 km/h 81% 0.0 mm 0 W/m2
19:01 5.7 °C 2.7 °C 1021.3 hPa East 9.7 km/h 20.9 km/h 81% 0.0 mm 0 W/m2
19:06 5.6 °C 2.6 °C 1021.3 hPa NE 6.4 km/h 17.7 km/h 81% 0.0 mm 0 W/m2
19:11 5.6 °C 2.8 °C 1021.3 hPa ESE 11.1 km/h 16.1 km/h 82% 0.0 mm 0 W/m2
19:16 5.5 °C 2.7 °C 1021.3 hPa ENE 17.7 km/h 17.7 km/h 82% 0.0 mm 0 W/m2
19:21 5.4 °C 2.6 °C 1021.7 hPa ENE 20.9 km/h 20.9 km/h 82% 0.0 mm 0 W/m2
19:27 5.4 °C 2.4 °C 1021.7 hPa NE 14.3 km/h 14.5 km/h 81% 0.0 mm 0 W/m2
19:32 5.3 °C 2.3 °C 1021.7 hPa East 11.1 km/h 27.4 km/h 81% 0.0 mm 0 W/m2
19:37 5.3 °C 2.3 °C 1021.7 hPa North 9.7 km/h 25.7 km/h 81% 0.0 mm 0 W/m2
19:42 5.2 °C 2.2 °C 1022.0 hPa ENE 9.7 km/h 27.4 km/h 81% 0.0 mm 0 W/m2
19:47 5.1 °C 2.1 °C 1021.7 hPa ESE 19.5 km/h 22.5 km/h 81% 0.0 mm 0 W/m2
19:52 5.1 °C 1.9 °C 1022.0 hPa East 13 km/h 17.7 km/h 80% 0.0 mm 0 W/m2
19:57 5.1 °C 1.9 °C 1022.0 hPa ENE 9.7 km/h 20.9 km/h 80% 0.0 mm 0 W/m2
20:02 5.1 °C 1.9 °C 1022.0 hPa ENE 6.4 km/h 25.7 km/h 80% 0.0 mm 0 W/m2
20:07 5 °C 1.8 °C 1022.0 hPa NE 7.9 km/h 14.5 km/h 80% 0.0 mm 0 W/m2
20:12 5.1 °C 1.9 °C 1022.0 hPa ESE 16.3 km/h 16.1 km/h 80% 0.0 mm 0 W/m2
20:17 5.1 °C 1.9 °C 1022.0 hPa ENE 4.7 km/h 19.3 km/h 80% 0.0 mm 0 W/m2
20:22 5.1 °C 1.9 °C 1022.0 hPa ENE 14.3 km/h 20.9 km/h 80% 0.0 mm 0 W/m2
20:27 5.1 °C 1.8 °C 1022.0 hPa ESE 16.3 km/h 20.9 km/h 79% 0.0 mm 0 W/m2
20:32 5.1 °C 1.8 °C 1022.0 hPa ENE 3.2 km/h 9.7 km/h 79% 0.0 mm 0 W/m2
20:37 5.1 °C 1.8 °C 1022.0 hPa East 3.2 km/h 11.3 km/h 79% 0.0 mm 0 W/m2
20:42 5.1 °C 1.8 °C 1022.0 hPa ENE 9.7 km/h 16.1 km/h 79% 0.0 mm 0 W/m2
20:47 5.1 °C 1.8 °C 1022.0 hPa ESE 4.7 km/h 22.5 km/h 79% 0.0 mm 0 W/m2
20:52 5.1 °C 1.6 °C 1022.0 hPa ENE 9.7 km/h 17.7 km/h 78% 0.0 mm 0 W/m2
20:57 5.1 °C 1.8 °C 1022.4 hPa SE 4.7 km/h 12.9 km/h 79% 0.0 mm 0 W/m2
21:02 5 °C 1.7 °C 1022.4 hPa ENE 7.9 km/h 14.5 km/h 79% 0.0 mm 0 W/m2
21:07 5 °C 1.5 °C 1022.4 hPa NE 7.9 km/h 20.9 km/h 78% 0.0 mm 0 W/m2
21:12 4.9 °C 1.6 °C 1022.4 hPa NE 6.4 km/h 11.3 km/h 79% 0.0 mm 0 W/m2
21:17 4.9 °C 1.6 °C 1022.4 hPa East 6.4 km/h 14.5 km/h 79% 0.0 mm 0 W/m2
21:22 4.9 °C 1.6 °C 1022.0 hPa North 4.7 km/h 12.9 km/h 79% 0.0 mm 0 W/m2
21:27 4.9 °C 1.6 °C 1022.4 hPa East 6.4 km/h 9.7 km/h 79% 0.0 mm 0 W/m2
21:32 4.9 °C 1.6 °C 1022.4 hPa East 6.4 km/h 9.7 km/h 79% 0.0 mm 0 W/m2
21:37 4.8 °C 1.5 °C 1022.4 hPa NE 14.3 km/h 19.3 km/h 79% 0.0 mm 0 W/m2
21:42 4.8 °C 1.5 °C 1022.4 hPa East 4.7 km/h 14.5 km/h 79% 0.0 mm 0 W/m2
21:47 4.8 °C 1.5 °C 1022.4 hPa NE 6.4 km/h 16.1 km/h 79% 0.0 mm 0 W/m2
21:52 4.8 °C 1.3 °C 1022.4 hPa East 6.4 km/h 16.1 km/h 78% 0.0 mm 0 W/m2
21:57 4.8 °C 1.3 °C 1022.4 hPa East 6.4 km/h 16.1 km/h 78% 0.0 mm 0 W/m2
22:02 4.8 °C 1.3 °C 1022.4 hPa East 9.7 km/h 19.3 km/h 78% 0.0 mm 0 W/m2
22:07 4.7 °C 1.2 °C 1022.4 hPa ENE 6.4 km/h 20.9 km/h 78% 0.0 mm 0 W/m2
22:12 4.7 °C 1.2 °C 1022.4 hPa East 6.4 km/h 11.3 km/h 78% 0.0 mm 0 W/m2
22:17 4.7 °C 1.2 °C 1022.4 hPa East 4.7 km/h 12.9 km/h 78% 0.0 mm 0 W/m2
22:22 4.6 °C 1.1 °C 1022.4 hPa ENE 6.4 km/h 11.3 km/h 78% 0.0 mm 0 W/m2
22:27 4.6 °C 1.1 °C 1022.4 hPa NE 7.9 km/h 14.5 km/h 78% 0.0 mm 0 W/m2
22:32 4.6 °C 1.3 °C 1022.4 hPa ENE 4.7 km/h 12.9 km/h 79% 0.0 mm 0 W/m2
22:38 4.6 °C 1.1 °C 1022.4 hPa NE 1.4 km/h 14.5 km/h 78% 0.0 mm 0 W/m2
22:43 4.6 °C 1.1 °C 1022.4 hPa East 7.9 km/h 12.9 km/h 78% 0.0 mm 0 W/m2
22:48 4.6 °C 1.1 °C 1022.4 hPa ENE 7.9 km/h 22.5 km/h 78% 0.0 mm 0 W/m2
22:53 4.6 °C 0.9 °C 1022.4 hPa ENE 3.2 km/h 6.4 km/h 77% 0.0 mm 0 W/m2
22:58 4.6 °C 0.9 °C 1022.0 hPa SE 3.2 km/h 22.5 km/h 77% 0.0 mm 0 W/m2
23:03 4.5 °C 0.8 °C 1022.4 hPa East 13 km/h 12.9 km/h 77% 0.0 mm 0 W/m2
23:08 4.5 °C 0.8 °C 1022.4 hPa ENE 7.9 km/h 20.9 km/h 77% 0.0 mm 0 W/m2
23:13 4.4 °C 0.7 °C 1022.4 hPa East 4.7 km/h 12.9 km/h 77% 0.0 mm 0 W/m2
23:18 4.4 °C 0.7 °C 1022.4 hPa ESE 4.7 km/h 20.9 km/h 77% 0.0 mm 0 W/m2
23:23 4.4 °C 0.7 °C 1022.4 hPa East 6.4 km/h 12.9 km/h 77% 0.0 mm 0 W/m2
23:28 4.3 °C 0.6 °C 1022.4 hPa ENE 9.7 km/h 12.9 km/h 77% 0.0 mm 0 W/m2
23:33 4.3 °C 0.6 °C 1022.4 hPa SE 6.4 km/h 14.5 km/h 77% 0.0 mm 0 W/m2
23:38 4.3 °C 0.6 °C 1022.4 hPa East 9.7 km/h 16.1 km/h 77% 0.0 mm 0 W/m2
23:43 4.3 °C 0.8 °C 1022.4 hPa East 3.2 km/h 6.4 km/h 78% 0.0 mm 0 W/m2
23:48 4.2 °C 0.5 °C 1022.4 hPa ESE 6.4 km/h 14.5 km/h 77% 0.0 mm 0 W/m2
23:53 4.2 °C 0.5 °C 1022.0 hPa ENE 4.7 km/h 11.3 km/h 77% 0.0 mm 0 W/m2
23:58 4.1 °C 0.4 °C 1022.0 hPa East 6.4 km/h 11.3 km/h 77% 0.0 mm 0 W/m2
Juneau County Weather
Compliments of Weather Underground - 2 mb